Time;durP1;ratioP1;P1;durP2;ratioP2;P2;SDS_P1;SDS_P2;PMS_P1;PMS_P2;Temp;Humidity;BMP_temperature;BMP_pressure;BME280_temperature;BME280_humidity;BME280_pressure;Samples;Min_cycle;Max_cycle;Signal;HPM_P1;HPM_P2
2022/07/14 00:01:18;;;;;;;12.73;3.37;;;;;;;18.93;65.60;101974.84;5111926;27;20080;-64
2022/07/14 00:03:46;;;;;;;12.75;2.80;;;;;;;19.08;65.13;101972.72;5131396;27;20027;-64
2022/07/14 00:06:12;;;;;;;14.13;3.15;;;;;;;19.06;65.30;101970.19;5110581;27;20039;-64
2022/07/14 00:08:38;;;;;;;15.75;3.58;;;;;;;19.01;65.32;101975.94;5096512;27;20019;-64
2022/07/14 00:11:04;;;;;;;13.60;3.60;;;;;;;19.08;64.75;101983.53;5131668;27;20034;-64
2022/07/14 00:13:30;;;;;;;9.07;2.70;;;;;;;18.95;64.95;101970.19;5112687;27;20038;-64
2022/07/14 00:15:56;;;;;;;10.15;3.40;;;;;;;18.84;65.71;101965.66;5130588;27;20054;-64
2022/07/14 00:18:22;;;;;;;14.68;3.75;;;;;;;18.88;65.60;101950.06;5112270;27;20043;-64
2022/07/14 00:20:48;;;;;;;11.52;3.80;;;;;;;18.79;65.95;101949.81;5113993;27;20039;-64
2022/07/14 00:23:16;;;;;;;9.85;3.20;;;;;;;18.82;65.82;101930.75;5131166;27;20474;-64
2022/07/14 00:25:42;;;;;;;14.27;3.70;;;;;;;18.61;66.84;101935.09;5112606;27;20026;-64
2022/07/14 00:28:10;;;;;;;11.90;3.28;;;;;;;18.49;67.20;101930.69;5131843;27;20019;-64
2022/07/14 00:30:36;;;;;;;13.80;3.55;;;;;;;18.58;67.03;101938.03;5132290;27;20076;-64
2022/07/14 00:33:02;;;;;;;10.65;3.60;;;;;;;18.62;67.26;101955.69;5113277;27;20023;-64
2022/07/14 00:35:28;;;;;;;10.82;4.13;;;;;;;18.63;67.21;101961.94;5113678;27;20118;-64
2022/07/14 00:37:55;;;;;;;12.63;3.47;;;;;;;18.59;67.18;101964.88;5088671;27;20035;-64
2022/07/14 00:40:20;;;;;;;13.10;3.80;;;;;;;18.64;67.10;101955.56;5112717;27;20019;-64
2022/07/14 00:42:47;;;;;;;10.35;3.60;;;;;;;18.63;67.20;101960.09;5131002;27;20057;-64
2022/07/14 00:45:16;;;;;;;13.27;3.65;;;;;;;18.67;67.27;101963.41;5131870;27;20107;-64
2022/07/14 00:47:42;;;;;;;14.90;4.07;;;;;;;18.66;67.21;101959.84;5131662;27;20026;-64
2022/07/14 00:50:10;;;;;;;14.02;3.55;;;;;;;18.61;67.25;101949.44;5113183;27;20075;-64
2022/07/14 00:52:35;;;;;;;11.27;3.97;;;;;;;18.46;67.97;101956.03;5130510;27;20133;-64
2022/07/14 00:55:01;;;;;;;11.85;4.13;;;;;;;18.53;67.88;101959.09;5113086;27;20114;-64
2022/07/14 00:57:27;;;;;;;17.05;4.00;;;;;;;18.53;67.57;101953.72;5131346;27;20038;-64
2022/07/14 00:59:53;;;;;;;13.02;4.50;;;;;;;18.49;68.05;101957.63;5113339;27;20031;-64
2022/07/14 01:02:19;;;;;;;13.40;4.00;;;;;;;18.44;67.97;101949.91;5128096;27;20508;-64
2022/07/14 01:04:45;;;;;;;12.13;4.35;;;;;;;18.37;68.49;101956.75;5131054;27;20436;-64
2022/07/14 01:07:12;;;;;;;11.30;3.90;;;;;;;18.35;68.49;101967.69;5130888;27;20038;-64
2022/07/14 01:09:39;;;;;;;12.05;3.70;;;;;;;18.54;68.10;101974.31;5131736;27;20022;-64
2022/07/14 01:12:05;;;;;;;11.55;3.92;;;;;;;18.43;68.27;101971.59;5131180;28;20027;-64
2022/07/14 01:14:30;;;;;;;12.82;4.13;;;;;;;18.50;68.24;101981.78;5130994;28;20030;-64
2022/07/14 01:16:57;;;;;;;12.45;3.92;;;;;;;18.41;68.42;101976.22;5113194;28;20039;-64
2022/07/14 01:19:23;;;;;;;13.60;4.20;;;;;;;18.45;68.35;101973.19;5111952;28;20470;-64
2022/07/14 01:21:53;;;;;;;10.63;4.28;;;;;;;18.49;68.19;101973.81;5130067;28;20042;-64
2022/07/14 01:24:18;;;;;;;;;;;;;;;18.74;66.37;101986.25;5112289;28;20015;-64
2022/07/14 01:26:44;;;;;;;13.32;3.95;;;;;;;18.55;67.88;101981.41;5128320;28;19916;-64
2022/07/14 01:29:10;;;;;;;11.00;4.25;;;;;;;18.44;68.28;101982.22;5129802;28;20019;-64
2022/07/14 01:31:36;;;;;;;13.95;4.15;;;;;;;18.36;68.71;101982.84;5129147;28;20027;-64
2022/07/14 01:34:02;;;;;;;11.65;3.92;;;;;;;18.36;68.73;101985.53;5128936;28;20031;-64
2022/07/14 01:36:28;;;;;;;10.73;4.32;;;;;;;18.26;69.13;101984.53;5111983;28;20024;-64
2022/07/14 01:38:53;;;;;;;13.30;3.65;;;;;;;18.12;69.26;101992.84;5112765;28;20478;-64
2022/07/14 01:41:20;;;;;;;15.80;4.35;;;;;;;18.23;69.12;101982.06;5112065;28;20370;-64
2022/07/14 01:43:46;;;;;;;13.00;4.30;;;;;;;18.31;68.80;101985.03;5113131;28;20035;-64
2022/07/14 01:46:13;;;;;;;17.80;4.65;;;;;;;18.24;69.15;101978.41;5130954;28;20124;-64
2022/07/14 01:48:39;;;;;;;11.57;4.50;;;;;;;18.33;68.92;101974.16;5130278;28;20235;-64
2022/07/14 01:51:05;;;;;;;16.00;4.18;;;;;;;18.19;69.49;101977.91;5131694;27;20130;-64
2022/07/14 01:53:34;;;;;;;15.55;4.85;;;;;;;18.19;69.43;101974.38;5135173;27;20482;-65
2022/07/14 01:56:02;;;;;;;19.40;4.43;;;;;;;18.14;69.55;101972.88;5134760;27;20042;-64
2022/07/14 01:58:28;;;;;;;12.02;4.47;;;;;;;18.12;69.41;101969.47;5113878;27;20037;-64
2022/07/14 02:03:38;;;;;;;15.10;4.43;;;;;;;18.07;69.65;101968.94;5092691;27;20087;-64
2022/07/14 02:06:06;;;;;;;13.32;4.22;;;;;;;18.03;69.75;101969.28;5116087;27;20027;-64
2022/07/14 02:08:31;;;;;;;13.82;4.50;;;;;;;18.03;69.58;101972.84;5134587;27;20023;-64
2022/07/14 02:13:41;;;;;;;11.82;4.00;;;;;;;17.71;70.34;101970.75;5134464;27;20100;-64
2022/07/14 02:16:08;;;;;;;14.57;4.68;;;;;;;17.68;70.58;101970.97;5099334;27;20462;-64
2022/07/14 02:18:33;;;;;;;12.60;4.40;;;;;;;17.67;70.64;101966.53;5116313;27;21626;-64
2022/07/14 02:21:01;;;;;;;16.80;5.15;;;;;;;17.69;70.29;101967.31;5116293;27;20042;-64
2022/07/14 02:23:29;;;;;;;12.40;4.80;;;;;;;17.75;70.13;101968.66;5134067;27;20118;-64
2022/07/14 02:25:55;;;;;;;12.82;4.30;;;;;;;17.70;70.23;101970.84;5134556;27;20027;-64
2022/07/14 02:28:21;;;;;;;13.93;4.70;;;;;;;17.64;70.15;101960.53;5134110;27;20030;-64
2022/07/14 02:30:47;;;;;;;12.98;4.43;;;;;;;17.74;69.95;101969.66;5114674;27;20031;-64
2022/07/14 02:33:12;;;;;;;13.73;4.43;;;;;;;17.56;70.68;101971.00;5133837;27;20045;-64
2022/07/14 02:35:38;;;;;;;15.05;4.78;;;;;;;17.67;69.94;101958.47;5091817;27;20459;-64
2022/07/14 02:38:04;;;;;;;13.63;4.63;;;;;;;17.51;70.13;101946.31;5132702;27;20117;-64
2022/07/14 02:40:29;;;;;;;12.05;4.20;;;;;;;17.58;70.36;101959.16;5098471;27;20449;-64
2022/07/14 02:42:57;;;;;;;13.50;4.63;;;;;;;17.46;70.40;101957.41;5131911;27;20083;-64
2022/07/14 02:45:23;;;;;;;13.13;4.60;;;;;;;17.46;70.23;101954.72;5133287;27;20031;-64
2022/07/14 02:47:49;;;;;;;9.07;4.10;;;;;;;17.43;70.63;101939.66;5133416;27;20023;-64
2022/07/14 02:50:14;;;;;;;18.92;4.85;;;;;;;17.34;70.88;101948.41;5097747;27;20027;-64
2022/07/14 02:52:39;;;;;;;16.33;4.45;;;;;;;17.42;70.45;101940.63;5113240;27;20050;-64
2022/07/14 02:55:06;;;;;;;16.45;4.78;;;;;;;17.37;70.65;101941.94;5113910;27;20073;-64
2022/07/14 02:57:31;;;;;;;16.98;5.28;;;;;;;17.22;71.13;101941.25;5115387;27;20027;-64
2022/07/14 02:59:58;;;;;;;12.32;4.55;;;;;;;17.16;71.36;101942.56;5131909;27;20023;-64
2022/07/14 03:02:24;;;;;;;15.35;4.97;;;;;;;17.17;71.33;101944.28;5113825;28;20118;-64
2022/07/14 03:04:52;;;;;;;16.88;5.18;;;;;;;17.17;71.43;101944.28;5132963;27;20061;-64
2022/07/14 03:07:18;;;;;;;15.80;5.50;;;;;;;17.12;71.47;101946.47;5132562;27;20035;-64
2022/07/14 03:09:46;;;;;;;12.63;4.82;;;;;;;17.20;71.46;101937.81;5096549;27;20023;-64
2022/07/14 03:12:11;;;;;;;14.15;5.10;;;;;;;17.08;71.34;101930.66;5114774;27;20039;-64
2022/07/14 03:14:39;;;;;;;16.83;5.13;;;;;;;17.09;71.38;101935.06;5085086;27;20417;-64
2022/07/14 03:17:05;;;;;;;17.42;5.25;;;;;;;17.12;71.65;101933.03;5132401;27;20042;-64
2022/07/14 03:19:30;;;;;;;14.77;5.45;;;;;;;17.13;71.55;101923.13;5132598;27;20110;-64
2022/07/14 03:21:56;;;;;;;13.45;5.50;;;;;;;17.13;71.22;101923.13;5114555;27;20041;-64
2022/07/14 03:24:21;;;;;;;14.27;5.05;;;;;;;17.06;71.56;101914.66;5114342;27;20046;-64
2022/07/14 03:26:47;;;;;;;20.75;5.65;;;;;;;17.15;71.41;101916.66;5114079;27;20266;-64
2022/07/14 03:29:13;;;;;;;18.02;5.28;;;;;;;17.03;71.71;101906.81;5131584;27;20064;-64
2022/07/14 03:31:39;;;;;;;11.18;4.80;;;;;;;16.96;72.01;101916.28;5133139;27;20031;-64
2022/07/14 03:34:05;;;;;;;17.15;5.70;;;;;;;17.02;71.37;101915.84;5113933;27;20031;-64
2022/07/14 03:36:31;;;;;;;16.00;5.32;;;;;;;17.01;71.60;101912.28;5111676;27;20393;-64
2022/07/14 03:38:56;;;;;;;16.83;5.70;;;;;;;16.97;71.49;101916.19;5132550;27;20027;-64
2022/07/14 03:41:22;;;;;;;17.98;4.95;;;;;;;16.90;71.64;101909.53;5133060;27;20058;-64
2022/07/14 03:43:47;;;;;;;19.38;4.93;;;;;;;16.89;71.94;101915.88;5113631;27;20065;-64
2022/07/14 03:46:13;;;;;;;12.38;4.70;;;;;;;16.78;72.28;101905.91;5131585;27;20063;-64
2022/07/14 03:48:39;;;;;;;18.80;5.78;;;;;;;16.73;72.32;101923.28;5112578;27;20050;-64
2022/07/14 03:51:05;;;;;;;14.45;5.38;;;;;;;16.81;72.28;101923.63;5131872;27;20047;-65
2022/07/14 03:53:32;;;;;;;16.95;5.88;;;;;;;16.67;72.50;101940.69;5132574;27;20019;-64
2022/07/14 03:55:58;;;;;;;14.07;5.18;;;;;;;16.75;72.50;101948.22;5130310;27;20025;-64
2022/07/14 03:58:24;;;;;;;14.25;5.22;;;;;;;16.89;72.19;101939.22;5132290;27;20075;-64
2022/07/14 04:00:50;;;;;;;17.48;4.97;;;;;;;16.87;71.91;101947.38;5132421;27;20027;-64
2022/07/14 04:03:16;;;;;;;15.63;5.53;;;;;;;16.88;71.86;101941.00;5113199;27;20029;-64
2022/07/14 04:05:42;;;;;;;14.82;5.18;;;;;;;16.86;71.94;101956.41;5113536;27;20084;-64
2022/07/14 04:08:08;;;;;;;16.60;4.95;;;;;;;16.86;72.05;101950.19;5130997;27;20023;-64
2022/07/14 04:10:36;;;;;;;17.52;4.93;;;;;;;16.86;71.91;101952.88;5130377;27;20034;-64
2022/07/14 04:13:04;;;;;;;12.27;4.93;;;;;;;16.73;72.56;101959.06;5130072;27;20054;-64
2022/07/14 04:15:30;;;;;;;15.77;5.80;;;;;;;16.77;72.13;101932.91;5131690;27;20023;-64
2022/07/14 04:17:57;;;;;;;17.50;5.55;;;;;;;16.70;72.37;101958.44;5113640;27;20455;-64
2022/07/14 04:20:22;;;;;;;17.15;5.53;;;;;;;16.66;72.23;101949.72;5132013;27;20023;-64
2022/07/14 04:22:48;;;;;;;20.17;5.68;;;;;;;16.68;72.78;101946.97;5131463;27;20031;-64
2022/07/14 04:25:14;;;;;;;18.58;6.03;;;;;;;16.73;72.25;101944.78;5070848;27;20027;-65
2022/07/14 04:27:40;;;;;;;14.60;5.88;;;;;;;16.67;72.45;101943.38;5131388;27;20031;-64
2022/07/14 04:30:09;;;;;;;12.63;5.30;;;;;;;16.72;72.53;101945.75;5130350;27;20034;-64
2022/07/14 04:32:35;;;;;;;;;;;;;;;16.90;70.79;101936.41;5132388;27;20022;-65
2022/07/14 04:35:00;;;;;;;12.32;5.50;;;;;;;16.65;72.58;101944.47;5129326;27;19948;-65
2022/07/14 04:37:29;;;;;;;15.43;5.80;;;;;;;16.66;72.50;101944.38;5128619;27;20034;-64
2022/07/14 04:39:55;;;;;;;14.18;5.82;;;;;;;16.70;72.23;101948.53;5112271;27;20031;-65
2022/07/14 04:42:21;;;;;;;18.88;6.18;;;;;;;16.78;72.10;101945.34;5130225;27;20047;-64
2022/07/14 04:44:47;;;;;;;19.98;5.80;;;;;;;16.78;72.62;101934.59;5130436;27;20116;-65
2022/07/14 04:47:13;;;;;;;19.63;5.85;;;;;;;16.72;72.88;101926.94;5131539;27;20150;-64
2022/07/14 04:52:23;;;;;;;23.02;6.45;;;;;;;16.83;71.67;101908.28;5114071;27;20046;-64
2022/07/14 04:54:48;;;;;;;14.00;5.95;;;;;;;16.85;71.72;101919.75;5130769;27;20039;-64
2022/07/14 04:57:14;;;;;;;17.63;5.97;;;;;;;16.88;71.86;101930.25;5129733;27;20027;-64
2022/07/14 04:59:40;;;;;;;16.58;5.88;;;;;;;16.89;71.85;101932.00;5129611;27;20027;-64
2022/07/14 05:02:05;;;;;;;14.93;5.40;;;;;;;16.87;71.54;101935.75;5113312;27;20031;-64
2022/07/14 05:04:34;;;;;;;21.98;6.28;;;;;;;16.85;71.81;101940.38;5130401;27;20106;-65
2022/07/14 05:06:59;;;;;;;20.48;6.40;;;;;;;17.00;71.63;101942.84;5110064;28;20117;-64
2022/07/14 05:09:25;;;;;;;19.23;6.75;;;;;;;17.15;71.20;101958.81;5129447;27;20118;-65
2022/07/14 05:11:53;;;;;;;19.95;5.60;;;;;;;17.14;71.03;101957.94;5130431;27;20034;-65
2022/07/14 05:14:19;;;;;;;20.23;6.25;;;;;;;17.18;70.37;101956.75;5130569;27;20023;-65
2022/07/14 05:16:45;;;;;;;14.43;6.15;;;;;;;17.19;70.46;101963.00;5130346;28;20038;-65
2022/07/14 05:19:12;;;;;;;17.42;5.72;;;;;;;17.22;70.25;101960.94;5111788;28;20479;-65
2022/07/14 05:21:38;;;;;;;14.85;5.45;;;;;;;17.20;70.62;101943.19;5111573;28;20023;-65
2022/07/14 05:24:04;;;;;;;18.85;6.53;;;;;;;17.20;70.35;101943.19;5094490;28;20031;-64
2022/07/14 05:26:30;;;;;;;16.58;6.43;;;;;;;17.22;70.36;101942.13;5094603;27;20030;-65
2022/07/14 05:28:56;;;;;;;18.63;5.68;;;;;;;17.28;70.22;101937.25;5134014;27;20462;-65
2022/07/14 05:31:21;;;;;;;19.08;6.10;;;;;;;17.17;70.61;101941.59;5116036;27;20079;-65
2022/07/14 05:33:48;;;;;;;19.65;6.03;;;;;;;17.25;70.35;101951.78;5097916;27;20600;-65
2022/07/14 05:36:13;;;;;;;22.63;5.75;;;;;;;17.34;69.78;101945.72;5133659;27;20023;-65
2022/07/14 05:38:39;;;;;;;16.40;6.15;;;;;;;17.42;69.64;101943.34;5134203;27;20034;-65
2022/07/14 05:41:05;;;;;;;18.33;5.75;;;;;;;17.43;69.50;101931.59;5112157;27;20031;-64
2022/07/14 05:43:31;;;;;;;16.52;5.75;;;;;;;17.44;69.61;101929.75;5130178;27;20046;-65
2022/07/14 05:46:08;;;;;;;23.67;6.00;;;;;;;17.48;69.24;101934.81;5116481;27;20031;-64
2022/07/14 05:48:35;;;;;;;21.33;6.43;;;;;;;17.68;68.58;101948.59;5133417;27;20071;-65
2022/07/14 05:51:13;;;;;;;14.85;5.35;;;;;;;17.78;68.44;101944.25;5130495;27;20054;-65
2022/07/14 05:53:39;;;;;;;19.00;5.72;;;;;;;17.80;67.82;101954.91;5116462;27;20023;-65
2022/07/14 05:56:06;;;;;;;13.75;5.43;;;;;;;17.91;67.84;101953.13;5115337;27;20027;-65
2022/07/14 05:58:33;;;;;;;16.70;6.97;;;;;;;18.00;67.46;101946.19;5132237;27;20477;-65
2022/07/14 06:00:59;;;;;;;18.23;6.03;;;;;;;17.90;66.98;101939.75;5134258;27;20049;-65
2022/07/14 06:03:24;;;;;;;19.40;5.68;;;;;;;18.04;67.58;101941.41;5132876;27;20465;-65
2022/07/14 06:05:51;;;;;;;21.20;6.90;;;;;;;18.07;67.71;101942.03;5098742;27;20023;-65
2022/07/14 06:08:16;;;;;;;18.38;6.32;;;;;;;18.16;67.21;101935.06;5133758;27;20023;-64
2022/07/14 06:10:41;;;;;;;20.90;5.63;;;;;;;18.23;66.46;101941.66;5132942;27;20435;-65
2022/07/14 06:13:07;;;;;;;14.32;5.00;;;;;;;18.31;66.50;101947.31;5134567;27;20102;-64
2022/07/14 06:15:32;;;;;;;14.52;5.15;;;;;;;18.34;66.29;101947.09;5131654;27;20035;-64
2022/07/14 06:17:58;;;;;;;18.63;5.55;;;;;;;18.44;65.86;101949.06;5114427;27;20053;-64
2022/07/14 06:20:23;;;;;;;18.95;4.78;;;;;;;18.43;65.31;101941.97;5114424;27;20054;-64
2022/07/14 06:22:52;;;;;;;14.95;5.13;;;;;;;18.53;65.29;101940.25;5131926;27;20134;-64
2022/07/14 06:25:20;;;;;;;18.87;5.53;;;;;;;18.68;64.99;101936.34;5098700;27;20188;-63
2022/07/14 06:27:46;;;;;;;18.85;5.03;;;;;;;18.72;65.00;101940.50;5131556;27;20771;-63
2022/07/14 06:30:15;;;;;;;16.60;4.80;;;;;;;18.70;64.96;101933.50;5133779;27;20073;-63
2022/07/14 06:32:40;;;;;;;16.55;4.95;;;;;;;18.71;64.93;101936.09;5115024;27;20028;-63
2022/07/14 06:35:07;;;;;;;13.07;3.95;;;;;;;18.60;64.30;101942.34;5089332;27;20031;-63
2022/07/14 06:37:35;;;;;;;16.25;5.18;;;;;;;18.53;64.90;101935.72;5134395;27;20381;-63
2022/07/14 06:40:05;;;;;;;16.48;4.78;;;;;;;18.59;64.65;101942.47;5099177;27;20026;-63
2022/07/14 06:42:34;;;;;;;14.82;4.43;;;;;;;18.69;64.27;101946.13;5134331;27;20115;-63
2022/07/14 06:45:00;;;;;;;16.85;4.60;;;;;;;18.71;64.61;101946.88;5134144;27;20026;-63
2022/07/14 06:47:25;;;;;;;18.20;5.22;;;;;;;18.77;64.74;101959.91;5096697;27;20453;-63
2022/07/14 06:49:51;;;;;;;18.85;5.45;;;;;;;18.78;64.11;101956.22;5132522;27;20035;-63
2022/07/14 06:52:16;;;;;;;19.00;5.40;;;;;;;18.81;63.96;101955.97;5132567;27;20566;-63
2022/07/14 06:54:42;;;;;;;16.98;5.10;;;;;;;18.74;63.88;101952.06;5133804;27;20027;-63
2022/07/14 06:57:08;;;;;;;18.33;4.97;;;;;;;18.75;63.62;101948.38;5115365;27;20066;-63
2022/07/14 06:59:34;;;;;;;22.50;5.75;;;;;;;18.77;63.89;101949.13;5133274;27;20092;-63
2022/07/14 07:02:02;;;;;;;21.10;6.18;;;;;;;18.78;64.37;101945.44;5098461;27;20490;-64
2022/07/14 07:04:30;;;;;;;20.50;5.97;;;;;;;18.87;64.29;101940.28;5130516;27;20019;-63
2022/07/14 07:06:56;;;;;;;16.63;5.97;;;;;;;18.88;64.17;101936.59;5109412;27;20030;-63
2022/07/14 07:09:21;;;;;;;17.83;6.38;;;;;;;18.95;63.55;101940.53;5106091;27;20103;-63
2022/07/14 07:11:49;;;;;;;18.75;5.32;;;;;;;18.94;63.64;101939.66;5133025;27;20492;-63
2022/07/14 07:14:18;;;;;;;16.67;6.60;;;;;;;18.91;63.00;101936.34;5115220;27;20122;-63
2022/07/14 07:16:48;;;;;;;;;;;;;;;19.14;63.00;101950.66;5132886;27;20019;-63
2022/07/14 07:19:14;;;;;;;17.52;5.45;;;;;;;19.14;62.75;101942.56;5114430;27;19990;-63
2022/07/14 07:21:40;;;;;;;14.70;5.70;;;;;;;19.14;61.37;101938.03;5132051;27;20578;-63
2022/07/14 07:24:06;;;;;;;11.88;5.05;;;;;;;19.22;61.77;101940.09;5132256;27;20054;-63
2022/07/14 07:26:34;;;;;;;15.10;5.80;;;;;;;19.25;61.44;101943.41;5130197;27;20050;-63
2022/07/14 07:29:02;;;;;;;17.17;5.05;;;;;;;19.26;61.50;101944.25;5131346;27;20118;-63
2022/07/14 07:31:28;;;;;;;14.13;4.45;;;;;;;19.33;60.77;101940.06;5114642;27;20374;-63
2022/07/14 07:33:55;;;;;;;17.23;4.93;;;;;;;19.35;60.61;101945.31;5094647;27;20035;-63
2022/07/14 07:36:21;;;;;;;17.02;4.90;;;;;;;19.41;61.12;101934.03;5131388;27;20109;-63
2022/07/14 07:38:48;;;;;;;14.82;5.50;;;;;;;19.44;60.41;101941.88;5131908;27;20022;-63
2022/07/14 07:41:13;;;;;;;20.02;5.13;;;;;;;19.52;60.10;101928.59;5130610;27;20102;-63
2022/07/14 07:43:39;;;;;;;21.02;5.70;;;;;;;19.57;59.54;101912.88;5130322;27;20110;-63
2022/07/14 07:46:05;;;;;;;16.02;5.40;;;;;;;19.57;59.22;101918.28;5132166;27;20121;-63
2022/07/14 07:48:32;;;;;;;14.95;5.28;;;;;;;19.65;60.20;101912.28;5113558;27;20038;-63
2022/07/14 07:51:00;;;;;;;13.85;5.82;;;;;;;19.68;59.98;101915.56;5113749;27;20045;-63
2022/07/14 07:53:26;;;;;;;13.60;4.50;;;;;;;19.73;59.03;101921.41;5131454;27;20688;-63
2022/07/14 07:55:52;;;;;;;16.90;4.70;;;;;;;19.79;58.66;101913.78;5114294;27;20092;-63
2022/07/14 07:58:19;;;;;;;16.25;4.18;;;;;;;19.93;59.05;101924.28;5113775;27;20019;-63
2022/07/14 08:00:47;;;;;;;14.30;4.75;;;;;;;19.92;58.90;101923.41;5130234;27;20386;-63
2022/07/14 08:03:13;;;;;;;14.48;4.82;;;;;;;20.03;58.44;101919.81;5132732;27;20027;-63
2022/07/14 08:05:40;;;;;;;18.67;5.28;;;;;;;19.97;58.59;101909.50;5130974;27;20381;-63
2022/07/14 08:08:07;;;;;;;14.23;3.97;;;;;;;20.12;59.21;101907.34;5129548;27;20043;-63
2022/07/14 08:10:33;;;;;;;12.77;5.05;;;;;;;20.06;58.29;101900.63;5114051;27;20385;-63
2022/07/14 08:12:58;;;;;;;15.63;4.88;;;;;;;20.16;58.16;101906.94;5131020;27;20100;-63
2022/07/14 08:15:26;;;;;;;11.23;3.58;;;;;;;20.17;58.07;101881.63;5132256;27;20122;-63
2022/07/14 08:17:52;;;;;;;12.77;4.27;;;;;;;20.34;56.96;101898.22;5131573;27;20062;-63
2022/07/14 08:20:19;;;;;;;9.95;4.18;;;;;;;20.35;56.04;101898.09;5124787;27;20439;-63
2022/07/14 08:22:44;;;;;;;9.63;4.00;;;;;;;20.40;55.88;101894.97;5109776;27;20027;-63
2022/07/14 08:25:10;;;;;;;12.52;3.88;;;;;;;20.47;54.73;101890.75;5112255;27;20375;-63
2022/07/14 08:27:35;;;;;;;12.18;4.05;;;;;;;20.36;55.03;101877.31;5131317;27;20027;-63
2022/07/14 08:30:03;;;;;;;13.18;3.80;;;;;;;20.51;55.06;101900.28;5132269;27;20084;-63
2022/07/14 08:32:47;;;;;;;15.68;3.50;;;;;;;20.58;55.98;101892.50;5132023;27;20019;-63
2022/07/14 08:35:14;;;;;;;12.07;3.45;;;;;;;20.62;52.25;101893.97;5131677;27;20087;-63
2022/07/14 08:37:41;;;;;;;9.07;3.65;;;;;;;20.73;52.25;101893.00;5113021;27;20034;-63
2022/07/14 08:40:10;;;;;;;10.65;3.40;;;;;;;20.68;52.33;101882.59;5131217;27;20019;-63
2022/07/14 08:42:36;;;;;;;8.75;3.72;;;;;;;20.58;53.48;101889.81;5113266;27;20074;-63
2022/07/14 08:45:12;;;;;;;9.68;3.88;;;;;;;20.54;54.28;101882.97;5131216;27;20106;-63
2022/07/14 08:47:38;;;;;;;9.27;3.40;;;;;;;20.49;53.66;101901.41;5113576;27;20038;-63
2022/07/14 08:50:07;;;;;;;10.48;3.08;;;;;;;20.56;53.34;101898.06;5113954;27;20030;-63
2022/07/14 08:52:32;;;;;;;11.53;3.53;;;;;;;20.67;53.93;101897.09;5131414;27;20070;-63
2022/07/14 08:54:58;;;;;;;12.48;4.10;;;;;;;20.68;53.86;101893.41;5113425;27;20360;-63
2022/07/14 08:57:25;;;;;;;11.73;4.22;;;;;;;20.73;53.02;101885.72;5131302;27;20023;-63
2022/07/14 08:59:51;;;;;;;15.60;3.58;;;;;;;20.86;53.76;101883.66;5131802;27;20035;-63
2022/07/14 09:02:17;;;;;;;12.07;3.63;;;;;;;20.91;52.27;101882.38;5112869;27;20087;-63
2022/07/14 09:04:46;;;;;;;11.77;3.20;;;;;;;21.00;51.06;101889.63;5131893;27;20031;-63
2022/07/14 09:07:14;;;;;;;14.77;3.75;;;;;;;21.14;50.51;101883.81;5131095;27;20115;-63
2022/07/14 09:09:40;;;;;;;6.60;3.38;;;;;;;21.27;51.36;101887.13;5132148;27;20023;-63
2022/07/14 09:12:07;;;;;;;14.30;4.05;;;;;;;21.39;50.73;101889.75;5113419;27;20084;-63
2022/07/14 09:17:49;;;;;;;9.98;3.45;;;;;;;21.46;51.08;101880.91;5128086;28;20397;-63
2022/07/14 09:20:14;;;;;;;10.70;3.15;;;;;;;21.46;49.27;101875.47;5125602;28;20102;-63
2022/07/14 09:22:43;;;;;;;10.80;3.10;;;;;;;21.51;49.21;101875.06;5130782;28;20102;-63
2022/07/14 09:25:17;;;;;;;7.65;2.85;;;;;;;21.68;49.57;101879.75;5113379;28;20033;-63
2022/07/14 09:27:45;;;;;;;8.43;2.90;;;;;;;21.72;50.43;101878.47;5131436;28;20027;-63
2022/07/14 09:30:12;;;;;;;9.20;3.33;;;;;;;21.82;48.79;101883.84;5131495;28;20026;-63
2022/07/14 09:32:46;;;;;;;7.82;2.88;;;;;;;21.77;49.05;101875.34;5129038;28;20030;-63
2022/07/14 09:35:15;;;;;;;8.35;3.25;;;;;;;21.78;48.13;101877.88;5130383;28;20037;-63
2022/07/14 09:37:40;;;;;;;11.65;3.30;;;;;;;21.97;48.63;101871.59;5129695;28;20105;-63
2022/07/14 09:40:15;;;;;;;7.10;2.67;;;;;;;22.17;48.07;101875.09;5113242;28;20263;-63
2022/07/14 09:42:57;;;;;;;7.38;2.80;;;;;;;22.14;44.86;101880.78;5131675;28;20035;-63
2022/07/14 09:45:27;;;;;;;9.88;3.03;;;;;;;22.12;47.75;101873.81;5131528;28;20474;-63
2022/07/14 09:48:02;;;;;;;7.82;2.15;;;;;;;22.22;46.06;101869.25;5111295;28;20034;-63
2022/07/14 09:50:54;;;;;;;7.18;2.90;;;;;;;22.32;46.42;101874.63;5131070;28;20034;-63
2022/07/14 09:53:27;;;;;;;6.80;2.72;;;;;;;22.42;46.21;101883.59;5100185;28;20034;-63
2022/07/14 09:55:57;;;;;;;4.90;2.58;;;;;;;22.47;44.59;101875.84;5130335;28;20494;-63
2022/07/14 09:58:31;;;;;;;8.65;3.00;;;;;;;22.36;45.71;101885.03;5129447;28;20026;-63
2022/07/14 10:01:01;;;;;;;9.02;2.78;;;;;;;22.48;44.98;101882.16;5128869;28;20015;-63
2022/07/14 10:03:28;;;;;;;5.97;2.90;;;;;;;22.50;45.24;101882.84;5129837;28;20503;-63
2022/07/14 10:05:58;;;;;;;6.13;2.47;;;;;;;22.35;44.57;101875.19;5127698;28;20023;-63
2022/07/14 10:08:27;;;;;;;9.35;2.90;;;;;;;22.21;45.98;101862.13;5129563;28;20027;-63
2022/07/14 10:10:54;;;;;;;6.60;2.72;;;;;;;22.38;47.16;101874.03;5111511;28;20031;-63
2022/07/14 10:13:20;;;;;;;7.38;2.20;;;;;;;22.30;41.36;101873.94;5114317;27;20026;-63
2022/07/14 10:15:50;;;;;;;4.13;1.73;;;;;;;22.31;41.91;101883.78;5134790;27;20027;-63
2022/07/14 10:18:16;;;;;;;4.85;1.85;;;;;;;22.20;42.30;101884.81;5115333;27;20031;-63
2022/07/14 10:20:48;;;;;;;6.35;2.22;;;;;;;22.16;44.50;101883.38;5131877;27;20030;-63
2022/07/14 10:23:14;;;;;;;6.43;2.05;;;;;;;22.07;43.07;101879.69;5113862;27;20084;-69
2022/07/14 10:25:41;;;;;;;7.93;2.08;;;;;;;22.21;43.22;101879.25;5115992;27;20042;-69
2022/07/14 10:28:07;;;;;;;11.07;2.75;;;;;;;22.30;44.95;101880.22;5116285;27;20030;-69
2022/07/14 10:30:48;;;;;;;7.15;2.70;;;;;;;22.43;44.90;101888.00;5132311;27;20055;-69
2022/07/14 10:33:24;;;;;;;10.65;2.88;;;;;;;22.52;43.62;101884.41;5134109;27;20109;-69
2022/07/14 10:36:04;;;;;;;4.50;2.17;;;;;;;22.50;44.38;101891.84;5130988;27;20027;-69
2022/07/14 10:38:48;;;;;;;7.10;1.95;;;;;;;22.48;42.97;101903.84;5122863;27;20030;-69
2022/07/14 10:41:44;;;;;;;5.10;2.20;;;;;;;22.40;43.66;101897.28;5113860;27;20106;-69
2022/07/14 10:44:19;;;;;;;6.35;2.58;;;;;;;22.36;43.57;101895.03;5132316;27;20035;-62
2022/07/14 10:46:47;;;;;;;8.27;2.20;;;;;;;22.35;44.08;101893.31;5115265;27;20027;-62
2022/07/14 10:49:14;;;;;;;4.97;2.00;;;;;;;22.39;44.52;101892.88;5115283;27;20023;-62
2022/07/14 10:51:43;;;;;;;6.95;2.08;;;;;;;22.52;42.95;101892.53;5114072;27;20059;-63
2022/07/14 10:54:09;;;;;;;;;;;;;;;22.71;43.89;101891.59;5114505;27;20035;-64
2022/07/14 10:56:36;;;;;;;5.90;2.08;;;;;;;22.73;44.43;101880.59;5131094;27;19980;-63
2022/07/14 10:59:26;;;;;;;6.13;2.30;;;;;;;22.85;44.49;101885.69;5111701;27;20027;-63
2022/07/14 11:02:12;;;;;;;6.53;2.22;;;;;;;23.04;44.79;101887.44;5115036;27;20051;-63
2022/07/14 11:05:01;;;;;;;7.97;2.05;;;;;;;23.18;44.24;101887.91;5133440;27;20043;-62
2022/07/14 11:07:35;;;;;;;4.40;2.10;;;;;;;23.28;42.09;101892.25;5111027;27;20501;-61
2022/07/14 11:10:04;;;;;;;6.55;1.95;;;;;;;23.35;40.78;101889.78;5131713;27;20084;-62
2022/07/14 11:12:30;;;;;;;4.15;1.58;;;;;;;23.55;42.03;101888.59;5131675;27;20493;-61
2022/07/14 11:14:56;;;;;;;5.80;2.28;;;;;;;23.68;41.83;101892.78;5133896;27;20042;-59
2022/07/14 11:17:39;;;;;;;7.90;2.25;;;;;;;23.77;42.54;101895.44;5111965;27;20035;-60
2022/07/14 11:20:10;;;;;;;8.93;2.10;;;;;;;23.74;40.90;101898.50;5132077;27;20030;-61
2022/07/14 11:22:36;;;;;;;6.95;2.03;;;;;;;23.67;41.04;101893.78;5132229;27;20023;-60
2022/07/14 11:25:03;;;;;;;5.75;2.42;;;;;;;23.49;41.53;101891.94;5133059;27;20019;-61
2022/07/14 11:27:43;;;;;;;7.72;2.10;;;;;;;23.39;41.49;101883.03;5132765;27;20371;-60
2022/07/14 11:30:29;;;;;;;7.65;1.98;;;;;;;23.60;42.83;101884.56;5129460;27;20054;-60
2022/07/14 11:33:09;;;;;;;4.35;1.67;;;;;;;23.57;42.50;101886.59;5114957;27;20023;-62